createdAt,value
2023-08-14T00:05:18.335Z,14.4
2023-08-14T00:15:18.527Z,14.3
2023-08-14T00:25:18.727Z,14.1
2023-08-14T00:35:18.937Z,14.1
2023-08-14T00:55:19.308Z,14.1
2023-08-14T01:15:19.708Z,14
2023-08-14T01:25:19.915Z,13.8
2023-08-14T01:35:20.097Z,13.7
2023-08-14T01:45:20.298Z,13.6
2023-08-14T01:55:20.494Z,13.5
2023-08-14T02:05:20.688Z,13.5
2023-08-14T02:15:20.901Z,13.5
2023-08-14T02:25:21.270Z,13.6
2023-08-14T02:35:21.509Z,13.5
2023-08-14T02:45:21.500Z,13.2
2023-08-14T02:55:21.692Z,13.1
2023-08-14T03:05:21.889Z,13.3
2023-08-14T03:15:22.103Z,13.1
2023-08-14T03:25:22.291Z,13.3
2023-08-14T03:35:22.504Z,13.2
2023-08-14T03:45:22.704Z,13
2023-08-14T03:55:22.886Z,12.9
2023-08-14T04:05:23.105Z,12.8
2023-08-14T04:15:23.289Z,12.9
2023-08-14T04:25:23.531Z,12.8
2023-08-14T04:35:25.169Z,12.9
2023-08-14T04:45:23.876Z,12.9
2023-08-14T04:55:24.075Z,12.8
2023-08-14T05:15:24.491Z,13.3
2023-08-14T05:25:24.659Z,13.5
2023-08-14T05:35:24.896Z,14.1
2023-08-14T05:45:25.078Z,15
2023-08-14T05:55:25.272Z,15.8
2023-08-14T06:05:25.515Z,16.3
2023-08-14T06:15:25.651Z,16.9
2023-08-14T06:25:25.842Z,17.4
2023-08-14T06:35:26.044Z,17.8
2023-08-14T06:55:26.438Z,18.5
2023-08-14T07:05:26.671Z,18.7
2023-08-14T07:15:26.829Z,18.7
2023-08-14T07:35:27.242Z,18.4
2023-08-14T07:45:27.440Z,18.5
2023-08-14T07:55:27.650Z,18.8
2023-08-14T08:05:27.912Z,19
2023-08-14T08:15:27.999Z,19.9
2023-08-14T08:25:28.185Z,21
2023-08-14T08:35:28.374Z,21.8
2023-08-14T08:45:28.573Z,22.3
2023-08-14T08:55:29.926Z,23
2023-08-14T09:05:28.959Z,23.4
2023-08-14T09:15:33.123Z,23.9
2023-08-14T09:35:29.575Z,24.3
2023-08-14T09:45:29.787Z,24.5
2023-08-14T09:55:29.929Z,25
2023-08-14T10:05:30.130Z,24.7
2023-08-14T10:25:30.522Z,25.2
2023-08-14T10:35:30.713Z,25.2
2023-08-14T10:45:30.908Z,25.5
2023-08-14T10:55:31.092Z,25.4
2023-08-14T11:05:31.312Z,25.5
2023-08-14T11:15:31.533Z,25.7
2023-08-14T11:25:31.678Z,25.8
2023-08-14T11:35:31.879Z,26
2023-08-14T11:45:32.076Z,26.1
2023-08-14T11:55:32.297Z,26
2023-08-14T12:05:32.440Z,26.4
2023-08-14T12:15:32.663Z,26.5
2023-08-14T12:25:32.846Z,26.5
2023-08-14T12:35:33.045Z,26.4
2023-08-14T12:55:33.414Z,27.2
2023-08-14T13:15:33.814Z,27.4
2023-08-14T13:25:34.008Z,27.2
2023-08-14T13:35:34.179Z,27.4
2023-08-14T13:45:34.372Z,27.2
2023-08-14T13:55:34.600Z,26.7
2023-08-14T14:05:34.777Z,27.3
2023-08-14T14:15:35.024Z,27.2
2023-08-14T14:25:35.156Z,27.5
2023-08-14T14:35:35.357Z,27.8
2023-08-14T14:45:35.861Z,27.9
2023-08-14T14:55:35.758Z,28
2023-08-14T15:05:35.925Z,27.8
2023-08-14T15:15:36.167Z,28
2023-08-14T15:25:36.311Z,27.8
2023-08-14T15:55:36.889Z,27.2
2023-08-14T16:05:37.093Z,26.8
2023-08-14T16:15:37.281Z,26.7
2023-08-14T16:25:37.486Z,26.7
2023-08-14T16:45:37.857Z,26.9
2023-08-14T16:55:38.058Z,26.4
2023-08-14T17:05:38.298Z,26.2
2023-08-14T17:15:38.444Z,26
2023-08-14T17:25:38.667Z,25.8
2023-08-14T17:35:38.840Z,25.5
2023-08-14T17:45:39.065Z,25.4
2023-08-14T17:55:39.220Z,25.2
2023-08-14T18:05:39.407Z,24.9
2023-08-14T18:15:39.612Z,24.9
2023-08-14T18:35:39.991Z,24.3
2023-08-14T18:45:40.227Z,24
2023-08-14T18:55:40.378Z,23.8
2023-08-14T19:15:40.792Z,23.3
2023-08-14T19:25:40.958Z,23.1
2023-08-14T19:35:41.153Z,22.8
2023-08-14T19:45:41.339Z,22.5
2023-08-14T19:55:41.546Z,22.2
2023-08-14T20:05:41.794Z,21.9
2023-08-14T20:15:41.954Z,21.6
2023-08-14T20:35:42.329Z,21.2
2023-08-14T20:55:42.714Z,21.1
2023-08-14T21:15:43.108Z,21.2
2023-08-14T21:25:47.547Z,21.5
2023-08-14T21:35:43.491Z,21.9
2023-08-14T21:55:43.903Z,22.2
2023-08-14T22:05:44.083Z,22.1
2023-08-14T22:15:46.652Z,22.1
2023-08-14T22:35:44.641Z,22
2023-08-14T22:55:45.037Z,22
2023-08-14T23:05:45.223Z,21.8
2023-08-14T23:15:45.438Z,21.7
2023-08-14T23:25:45.644Z,21.5
2023-08-14T23:45:46.021Z,21
